Bryce, UT (84764)

1:18 AM MDT on September 18, 2014 (GMT -0600)
RAWS BRYCE CANYON UT US | Change Station
CLOSE
Current Station
Personal Weather Station
Location: Bryce, UT
Elevation: 7854 ft
Nearby Weather Stations

Elev 7854 ft 37.64 °N, 112.17 °W | Updated 55 minutes ago

Clear
Clear
48 °F
Feels Like 48 °F
N
0
Wind Variable Wind from North
Gusts 2.0 mph

Today
High -- | Low -- °F
--% Chance of Precip.
Yesterday
High -- | Low -- °F
Precip. -- in
7:13 AM 7:31 PM
Waning Crescent, 29% visible
Pressure 29.89 in
Visibility 10.0 miles
Clouds Clear
Windchill 48 °F
Dew Point 45 °F
Humidity 89%
Rainfall 0.00 in
Snow Depth Not available.
UV 0 out of 12
Pollen 6.10 out of 12
Air Quality Not available.
Flu Activity Not available.
METAR KBCE 180653Z AUTO 27003KT 10SM CLR 09/07 A3022 RMK AO2 SLP120 T00890067 402330078

More Conditions Fewer Conditions

Pressure 29.89 in
Visibility 10.0 miles
Clouds Clear
Windchill 48 °F
Dew Point 45 °F
Humidity 89%
Rainfall 0.00 in
Snow Depth Not available.
UV 0 out of 12
Pollen 6.10 out of 12
Air Quality Not available.
Flu Activity Not available.
METAR KBCE 180653Z AUTO 27003KT 10SM CLR 09/07 A3022 RMK AO2 SLP120 T00890067 402330078

More Conditions Fewer Conditions

10-Day Weather Forecast

Almanac

Astronomy

Sep. 18, 2014 Rise Set
Actual Time 7:13 AM MDT 7:31 PM MDT
Civil Twilight 6:46 AM MDT 7:57 PM MDT
Nautical Twilight 6:16 AM MDT 8:28 PM MDT
Astronomical Twilight 5:44 AM MDT 8:59 PM MDT
Moon 2:12 AM MDT 4:21 PM MDT
Length of Visible Light 13h 10m
Length of Day
12h 18m
Tomorrow will be 2m 23s shorter.
Waning Crescent, 29% of the Moon is Illuminated
Today
Waning Crescent
Sep 24
New
Oct 1
First Quarter
Oct 8
Full
Oct 15
Last Quarter

Today's Extremes

State Highs State Lows

Community

WunderPhotos

Upload Photos

1,754,299 photos uploaded!

Nearby

Snow Depth

Station Depth Elevation
Brighton 0 in 8750 ft
Currant Creek 0 in 8000 ft
Chalk Creek #1 0 in 9100 ft
Trial Lake 1 in 9960 ft
Louis Meadow 0 in 6700 ft

Earthquake Activity

City Distance Mag. Time & Date
No recent earthquake activity has been reported nearby.
Minimum magnitude displayed is 2.5.

Coastal Water Temperatures

Place Temperature
No Stations Reporting

Nearby Weather Stations